sensor_id;sensor_type;location;lat;lon;timestamp;pressure;altitude;pressure_sealevel;temperature;humidity
23616;BME280;11985;49.404;7.734;2023-01-08T00:02:10;96569.41;;;7.62;100.00
23616;BME280;11985;49.404;7.734;2023-01-08T00:07:13;96556.69;;;7.65;100.00
23616;BME280;11985;49.404;7.734;2023-01-08T00:12:14;96547.19;;;7.71;100.00
23616;BME280;11985;49.404;7.734;2023-01-08T00:17:16;96550.41;;;7.80;100.00
23616;BME280;11985;49.404;7.734;2023-01-08T00:22:19;96552.44;;;7.84;100.00
23616;BME280;11985;49.404;7.734;2023-01-08T00:27:20;96546.75;;;7.87;100.00
23616;BME280;11985;49.404;7.734;2023-01-08T00:32:22;96539.09;;;7.92;100.00
23616;BME280;11985;49.404;7.734;2023-01-08T00:37:25;96533.84;;;7.92;100.00
23616;BME280;11985;49.404;7.734;2023-01-08T00:42:26;96527.19;;;7.97;100.00
23616;BME280;11985;49.404;7.734;2023-01-08T00:47:28;96526.16;;;7.98;100.00
23616;BME280;11985;49.404;7.734;2023-01-08T00:52:31;96528.19;;;7.96;100.00
23616;BME280;11985;49.404;7.734;2023-01-08T00:57:33;96525.78;;;7.94;100.00
23616;BME280;11985;49.404;7.734;2023-01-08T01:02:35;96534.84;;;7.91;100.00
23616;BME280;11985;49.404;7.734;2023-01-08T01:07:38;96533.84;;;7.92;100.00
23616;BME280;11985;49.404;7.734;2023-01-08T01:12:40;96533.88;;;7.86;100.00
23616;BME280;11985;49.404;7.734;2023-01-08T01:17:42;96532.66;;;7.82;100.00
23616;BME280;11985;49.404;7.734;2023-01-08T01:22:47;96525.44;;;7.71;100.00
23616;BME280;11985;49.404;7.734;2023-01-08T01:27:49;96522.00;;;7.70;100.00
23616;BME280;11985;49.404;7.734;2023-01-08T01:32:50;96527.06;;;7.65;100.00
23616;BME280;11985;49.404;7.734;2023-01-08T01:37:53;96531.91;;;7.55;100.00
23616;BME280;11985;49.404;7.734;2023-01-08T01:42:55;96537.56;;;7.52;100.00
23616;BME280;11985;49.404;7.734;2023-01-08T01:47:58;96534.94;;;7.52;100.00
23616;BME280;11985;49.404;7.734;2023-01-08T01:53:05;96525.88;;;7.48;100.00
23616;BME280;11985;49.404;7.734;2023-01-08T01:58:11;96529.50;;;7.47;100.00
23616;BME280;11985;49.404;7.734;2023-01-08T02:03:15;96518.25;;;7.39;100.00
23616;BME280;11985;49.404;7.734;2023-01-08T02:08:24;96511.41;;;7.38;100.00
23616;BME280;11985;49.404;7.734;2023-01-08T02:13:31;96507.78;;;7.39;100.00
23616;BME280;11985;49.404;7.734;2023-01-08T02:18:37;96499.09;;;7.32;100.00
23616;BME280;11985;49.404;7.734;2023-01-08T02:23:46;96497.69;;;7.36;100.00
23616;BME280;11985;49.404;7.734;2023-01-08T02:28:54;96489.22;;;7.34;100.00
23616;BME280;11985;49.404;7.734;2023-01-08T02:33:58;96474.53;;;7.33;100.00
23616;BME280;11985;49.404;7.734;2023-01-08T02:39:08;96473.13;;;7.31;100.00
23616;BME280;11985;49.404;7.734;2023-01-08T02:44:17;96465.03;;;7.32;100.00
23616;BME280;11985;49.404;7.734;2023-01-08T02:49:22;96458.81;;;7.33;100.00
23616;BME280;11985;49.404;7.734;2023-01-08T02:54:27;96444.50;;;7.29;100.00
23616;BME280;11985;49.404;7.734;2023-01-08T02:59:33;96445.72;;;7.27;100.00
23616;BME280;11985;49.404;7.734;2023-01-08T03:04:38;96429.19;;;7.26;100.00
23616;BME280;11985;49.404;7.734;2023-01-08T03:09:40;96423.94;;;7.26;100.00
23616;BME280;11985;49.404;7.734;2023-01-08T03:14:46;96413.91;;;7.23;100.00
23616;BME280;11985;49.404;7.734;2023-01-08T03:19:53;96413.91;;;7.23;100.00
23616;BME280;11985;49.404;7.734;2023-01-08T03:24:57;96413.28;;;7.21;100.00
23616;BME280;11985;49.404;7.734;2023-01-08T03:30:02;96395.97;;;7.20;100.00
23616;BME280;11985;49.404;7.734;2023-01-08T03:35:06;96399.22;;;7.22;100.00
23616;BME280;11985;49.404;7.734;2023-01-08T03:40:13;96393.75;;;7.24;100.00
23616;BME280;11985;49.404;7.734;2023-01-08T03:45:18;96389.94;;;7.20;100.00
23616;BME280;11985;49.404;7.734;2023-01-08T03:50:25;96391.75;;;7.19;100.00
23616;BME280;11985;49.404;7.734;2023-01-08T03:55:27;96389.94;;;7.20;100.00
23616;BME280;11985;49.404;7.734;2023-01-08T04:00:30;96380.47;;;7.19;100.00
23616;BME280;11985;49.404;7.734;2023-01-08T04:05:32;96370.78;;;7.19;100.00
23616;BME280;11985;49.404;7.734;2023-01-08T04:10:33;96363.94;;;7.18;100.00
23616;BME280;11985;49.404;7.734;2023-01-08T04:15:36;96373.00;;;7.15;100.00
23616;BME280;11985;49.404;7.734;2023-01-08T04:20:38;96378.66;;;7.12;100.00
23616;BME280;11985;49.404;7.734;2023-01-08T04:25:39;96386.13;;;7.09;100.00
23616;BME280;11985;49.404;7.734;2023-01-08T04:30:42;96387.72;;;7.10;100.00
23616;BME280;11985;49.404;7.734;2023-01-08T04:35:44;96384.91;;;7.05;100.00
23616;BME280;11985;49.404;7.734;2023-01-08T04:40:45;96381.72;;;7.03;100.00
23616;BME280;11985;49.404;7.734;2023-01-08T04:45:48;96372.06;;;6.97;100.00
23616;BME280;11985;49.404;7.734;2023-01-08T04:50:50;96378.69;;;6.93;100.00
23616;BME280;11985;49.404;7.734;2023-01-08T04:55:51;96372.88;;;6.91;100.00
23616;BME280;11985;49.404;7.734;2023-01-08T05:00:54;96370.66;;;6.87;100.00
23616;BME280;11985;49.404;7.734;2023-01-08T05:05:59;96361.59;;;6.90;100.00
23616;BME280;11985;49.404;7.734;2023-01-08T05:11:01;96348.50;;;6.97;100.00
23616;BME280;11985;49.404;7.734;2023-01-08T05:16:04;96360.75;;;7.03;100.00
23616;BME280;11985;49.404;7.734;2023-01-08T05:21:06;96352.31;;;7.01;100.00
23616;BME280;11985;49.404;7.734;2023-01-08T05:26:08;96352.13;;;6.96;100.00
23616;BME280;11985;49.404;7.734;2023-01-08T05:31:12;96363.22;;;6.91;100.00
23616;BME280;11985;49.404;7.734;2023-01-08T05:36:14;96364.44;;;6.88;100.00
23616;BME280;11985;49.404;7.734;2023-01-08T05:41:15;96356.38;;;6.83;100.00
23616;BME280;11985;49.404;7.734;2023-01-08T05:46:18;96347.09;;;6.87;100.00
23616;BME280;11985;49.404;7.734;2023-01-08T05:51:21;96343.50;;;6.88;100.00
23616;BME280;11985;49.404;7.734;2023-01-08T05:56:22;96340.69;;;6.83;100.00
23616;BME280;11985;49.404;7.734;2023-01-08T06:01:25;96353.56;;;6.78;100.00
23616;BME280;11985;49.404;7.734;2023-01-08T06:06:27;96362.25;;;6.72;100.00
23616;BME280;11985;49.404;7.734;2023-01-08T06:11:28;96359.44;;;6.67;100.00
23616;BME280;11985;49.404;7.734;2023-01-08T06:16:31;96362.41;;;6.71;100.00
23616;BME280;11985;49.404;7.734;2023-01-08T06:21:33;96344.72;;;6.66;100.00
23616;BME280;11985;49.404;7.734;2023-01-08T06:26:34;96344.31;;;6.69;100.00
23616;BME280;11985;49.404;7.734;2023-01-08T06:31:37;96363.03;;;6.79;100.00
23616;BME280;11985;49.404;7.734;2023-01-08T06:36:39;96356.00;;;6.73;100.00
23616;BME280;11985;49.404;7.734;2023-01-08T06:41:41;96349.56;;;6.69;100.00
23616;BME280;11985;49.404;7.734;2023-01-08T06:46:44;96360.41;;;6.66;100.00
23616;BME280;11985;49.404;7.734;2023-01-08T06:51:46;96363.84;;;6.67;100.00
23616;BME280;11985;49.404;7.734;2023-01-08T06:56:47;96361.22;;;6.60;100.00
23616;BME280;11985;49.404;7.734;2023-01-08T07:01:51;96364.06;;;6.52;100.00
23616;BME280;11985;49.404;7.734;2023-01-08T07:06:52;96358.41;;;6.42;100.00
23616;BME280;11985;49.404;7.734;2023-01-08T07:11:54;96365.88;;;6.45;100.00
23616;BME280;11985;49.404;7.734;2023-01-08T07:16:56;96364.88;;;6.46;100.00
23616;BME280;11985;49.404;7.734;2023-01-08T07:21:58;96372.28;;;6.49;100.00
23616;BME280;11985;49.404;7.734;2023-01-08T07:26:59;96362.63;;;6.49;100.00
23616;BME280;11985;49.404;7.734;2023-01-08T07:32:03;96368.47;;;6.58;100.00
23616;BME280;11985;49.404;7.734;2023-01-08T07:37:04;96372.91;;;6.64;100.00
23616;BME280;11985;49.404;7.734;2023-01-08T07:42:06;96371.31;;;6.56;100.00
23616;BME280;11985;49.404;7.734;2023-01-08T07:47:09;96379.34;;;6.55;100.00
23616;BME280;11985;49.404;7.734;2023-01-08T07:52:11;96376.13;;;6.53;100.00
23616;BME280;11985;49.404;7.734;2023-01-08T07:57:12;96380.97;;;6.56;100.00
23616;BME280;11985;49.404;7.734;2023-01-08T08:02:15;96369.69;;;6.55;100.00
23616;BME280;11985;49.404;7.734;2023-01-08T08:07:16;96371.50;;;6.55;100.00
23616;BME280;11985;49.404;7.734;2023-01-08T08:12:18;96377.13;;;6.52;100.00
23616;BME280;11985;49.404;7.734;2023-01-08T08:17:21;96375.53;;;6.51;100.00
23616;BME280;11985;49.404;7.734;2023-01-08T08:22:22;96368.88;;;6.55;100.00
23616;BME280;11985;49.404;7.734;2023-01-08T08:27:24;96367.69;;;6.51;100.00
23616;BME280;11985;49.404;7.734;2023-01-08T08:32:27;96365.88;;;6.58;100.00
23616;BME280;11985;49.404;7.734;2023-01-08T08:37:29;96365.28;;;6.56;100.00
23616;BME280;11985;49.404;7.734;2023-01-08T08:42:30;96362.25;;;6.59;100.00
23616;BME280;11985;49.404;7.734;2023-01-08T08:47:34;96347.16;;;6.61;100.00
23616;BME280;11985;49.404;7.734;2023-01-08T08:52:35;96360.03;;;6.63;100.00
23616;BME280;11985;49.404;7.734;2023-01-08T08:57:37;96357.63;;;6.68;100.00
23616;BME280;11985;49.404;7.734;2023-01-08T09:02:40;96356.78;;;6.74;100.00
23616;BME280;11985;49.404;7.734;2023-01-08T09:07:41;96352.38;;;6.74;100.00
23616;BME280;11985;49.404;7.734;2023-01-08T09:12:43;96357.59;;;6.74;100.00
23616;BME280;11985;49.404;7.734;2023-01-08T09:17:51;96347.34;;;6.73;100.00
23616;BME280;11985;49.404;7.734;2023-01-08T09:22:53;96343.09;;;6.78;100.00
23616;BME280;11985;49.404;7.734;2023-01-08T09:27:58;96342.66;;;6.88;100.00
23616;BME280;11985;49.404;7.734;2023-01-08T09:33:02;96346.28;;;6.94;100.00
23616;BME280;11985;49.404;7.734;2023-01-08T09:38:04;96348.09;;;7.00;100.00
23616;BME280;11985;49.404;7.734;2023-01-08T09:43:07;96343.66;;;6.94;100.00
23616;BME280;11985;49.404;7.734;2023-01-08T09:48:16;96341.84;;;7.01;100.00
23616;BME280;11985;49.404;7.734;2023-01-08T09:53:19;96336.00;;;6.99;100.00
23616;BME280;11985;49.404;7.734;2023-01-08T09:58:25;96341.66;;;6.96;100.00
23616;BME280;11985;49.404;7.734;2023-01-08T10:03:39;96342.59;;;7.14;100.00
23616;BME280;11985;49.404;7.734;2023-01-08T10:08:42;96340.56;;;7.23;100.00
23616;BME280;11985;49.404;7.734;2023-01-08T10:13:47;96323.66;;;7.19;100.00
23616;BME280;11985;49.404;7.734;2023-01-08T10:18:51;96324.84;;;7.23;100.00
23616;BME280;11985;49.404;7.734;2023-01-08T10:23:52;96322.78;;;7.32;100.00
23616;BME280;11985;49.404;7.734;2023-01-08T10:29:08;96311.47;;;7.45;100.00
23616;BME280;11985;49.404;7.734;2023-01-08T10:34:21;96297.88;;;7.61;100.00
23616;BME280;11985;49.404;7.734;2023-01-08T10:39:26;96293.47;;;7.55;100.00
23616;BME280;11985;49.404;7.734;2023-01-08T10:44:29;96290.44;;;7.58;100.00
23616;BME280;11985;49.404;7.734;2023-01-08T10:49:36;96287.63;;;7.53;100.00
23616;BME280;11985;49.404;7.734;2023-01-08T10:54:41;96280.44;;;7.41;100.00
23616;BME280;11985;49.404;7.734;2023-01-08T10:59:42;96279.25;;;7.37;100.00
23616;BME280;11985;49.404;7.734;2023-01-08T11:04:49;96259.44;;;7.48;100.00
23616;BME280;11985;49.404;7.734;2023-01-08T11:09:52;96264.09;;;7.46;100.00
23616;BME280;11985;49.404;7.734;2023-01-08T11:14:54;96243.94;;;7.47;100.00
23616;BME280;11985;49.404;7.734;2023-01-08T11:20:08;96242.91;;;7.48;100.00
23616;BME280;11985;49.404;7.734;2023-01-08T11:25:12;96225.09;;;7.63;100.00
23616;BME280;11985;49.404;7.734;2023-01-08T11:30:17;96230.28;;;7.70;100.00
23616;BME280;11985;49.404;7.734;2023-01-08T11:35:23;96222.63;;;7.68;100.00
23616;BME280;11985;49.404;7.734;2023-01-08T11:40:32;96205.69;;;7.71;100.00
23616;BME280;11985;49.404;7.734;2023-01-08T11:45:47;96199.28;;;7.66;100.00
23616;BME280;11985;49.404;7.734;2023-01-08T11:51:05;96199.31;;;7.60;100.00
23616;BME280;11985;49.404;7.734;2023-01-08T11:56:18;96194.91;;;7.54;100.00
23616;BME280;11985;49.404;7.734;2023-01-08T12:01:30;96188.66;;;7.55;100.00
23616;BME280;11985;49.404;7.734;2023-01-08T12:06:44;96178.78;;;7.57;100.00
23616;BME280;11985;49.404;7.734;2023-01-08T12:11:52;96174.34;;;7.57;100.00
23616;BME280;11985;49.404;7.734;2023-01-08T12:17:11;96164.66;;;7.58;100.00
23616;BME280;11985;49.404;7.734;2023-01-08T12:22:31;96158.16;;;7.60;100.00
23616;BME280;11985;49.404;7.734;2023-01-08T12:27:42;96150.19;;;7.55;100.00
23616;BME280;11985;49.404;7.734;2023-01-08T12:32:48;96149.25;;;7.68;100.00
23616;BME280;11985;49.404;7.734;2023-01-08T12:37:56;96144.28;;;7.85;100.00
23616;BME280;11985;49.404;7.734;2023-01-08T12:43:05;96135.44;;;7.79;100.00
23616;BME280;11985;49.404;7.734;2023-01-08T12:48:17;96138.84;;;7.61;100.00
23616;BME280;11985;49.404;7.734;2023-01-08T12:53:29;96135.59;;;7.59;100.00
23616;BME280;11985;49.404;7.734;2023-01-08T12:58:42;96135.09;;;7.51;100.00
23616;BME280;11985;49.404;7.734;2023-01-08T13:03:51;96137.09;;;7.49;100.00
23616;BME280;11985;49.404;7.734;2023-01-08T13:08:56;96138.47;;;7.26;100.00
23616;BME280;11985;49.404;7.734;2023-01-08T13:13:59;96128.09;;;7.13;100.00
23616;BME280;11985;49.404;7.734;2023-01-08T13:19:02;96123.09;;;7.05;100.00
23616;BME280;11985;49.404;7.734;2023-01-08T13:24:21;96123.50;;;7.08;100.00
23616;BME280;11985;49.404;7.734;2023-01-08T13:29:37;96111.81;;;7.11;100.00
23616;BME280;11985;49.404;7.734;2023-01-08T13:34:39;96108.66;;;7.27;100.00
23616;BME280;11985;49.404;7.734;2023-01-08T13:39:43;96104.22;;;7.53;100.00
23616;BME280;11985;49.404;7.734;2023-01-08T13:44:47;96101.44;;;7.48;100.00
23616;BME280;11985;49.404;7.734;2023-01-08T13:49:51;96076.44;;;7.52;100.00
23616;BME280;11985;49.404;7.734;2023-01-08T13:54:55;96075.00;;;7.56;100.00
23616;BME280;11985;49.404;7.734;2023-01-08T13:59:58;96065.94;;;7.52;100.00
23616;BME280;11985;49.404;7.734;2023-01-08T14:05:01;96061.56;;;7.46;100.00
23616;BME280;11985;49.404;7.734;2023-01-08T14:10:11;96066.91;;;7.32;100.00
23616;BME280;11985;49.404;7.734;2023-01-08T14:15:19;96047.63;;;7.27;100.00
23616;BME280;11985;49.404;7.734;2023-01-08T14:20:28;96047.09;;;7.18;100.00
23616;BME280;11985;49.404;7.734;2023-01-08T14:25:32;96049.72;;;7.18;100.00
23616;BME280;11985;49.404;7.734;2023-01-08T14:30:33;96045.00;;;7.27;100.00
23616;BME280;11985;49.404;7.734;2023-01-08T14:35:36;96037.13;;;7.27;100.00
23616;BME280;11985;49.404;7.734;2023-01-08T14:40:41;96026.31;;;7.23;100.00
23616;BME280;11985;49.404;7.734;2023-01-08T14:45:45;96026.84;;;7.07;100.00
23616;BME280;11985;49.404;7.734;2023-01-08T14:50:58;96030.03;;;7.09;100.00
23616;BME280;11985;49.404;7.734;2023-01-08T14:56:03;96024.38;;;7.12;100.00
23616;BME280;11985;49.404;7.734;2023-01-08T15:01:06;96015.66;;;7.18;100.00
23616;BME280;11985;49.404;7.734;2023-01-08T15:06:09;96016.72;;;7.10;100.00
23616;BME280;11985;49.404;7.734;2023-01-08T15:11:21;96017.09;;;7.14;100.00
23616;BME280;11985;49.404;7.734;2023-01-08T15:16:28;96004.59;;;7.16;100.00
23616;BME280;11985;49.404;7.734;2023-01-08T15:21:35;96003.75;;;7.22;100.00
23616;BME280;11985;49.404;7.734;2023-01-08T15:26:42;95999.69;;;7.26;100.00
23616;BME280;11985;49.404;7.734;2023-01-08T15:31:46;95993.69;;;7.19;100.00
23616;BME280;11985;49.404;7.734;2023-01-08T15:36:48;95992.53;;;7.15;100.00
23616;BME280;11985;49.404;7.734;2023-01-08T15:41:51;95976.81;;;7.15;100.00
23616;BME280;11985;49.404;7.734;2023-01-08T15:47:10;95971.63;;;7.08;100.00
23616;BME280;11985;49.404;7.734;2023-01-08T15:52:12;95970.59;;;6.91;100.00
23616;BME280;11985;49.404;7.734;2023-01-08T15:57:15;95978.28;;;6.86;100.00
23616;BME280;11985;49.404;7.734;2023-01-08T16:02:20;95959.00;;;6.80;100.00
23616;BME280;11985;49.404;7.734;2023-01-08T16:07:22;95948.09;;;6.83;100.00
23616;BME280;11985;49.404;7.734;2023-01-08T16:12:25;95942.00;;;6.90;100.00
23616;BME280;11985;49.404;7.734;2023-01-08T16:17:27;95940.41;;;6.88;100.00
23616;BME280;11985;49.404;7.734;2023-01-08T16:22:29;95935.22;;;6.82;100.00
23616;BME280;11985;49.404;7.734;2023-01-08T16:27:32;95931.69;;;6.70;100.00
23616;BME280;11985;49.404;7.734;2023-01-08T16:32:34;95922.56;;;6.54;100.00
23616;BME280;11985;49.404;7.734;2023-01-08T16:37:37;95928.47;;;6.43;100.00
23616;BME280;11985;49.404;7.734;2023-01-08T16:42:40;95938.03;;;6.30;100.00
23616;BME280;11985;49.404;7.734;2023-01-08T16:47:42;95938.88;;;6.24;100.00
23616;BME280;11985;49.404;7.734;2023-01-08T16:52:44;95923.75;;;6.26;100.00
23616;BME280;11985;49.404;7.734;2023-01-08T16:57:47;95910.63;;;6.40;100.00
23616;BME280;11985;49.404;7.734;2023-01-08T17:02:48;95915.31;;;6.56;100.00
23616;BME280;11985;49.404;7.734;2023-01-08T17:07:50;95909.22;;;6.62;100.00
23616;BME280;11985;49.404;7.734;2023-01-08T17:12:54;95887.84;;;6.65;100.00
23616;BME280;11985;49.404;7.734;2023-01-08T17:17:55;95880.47;;;6.62;100.00
23616;BME280;11985;49.404;7.734;2023-01-08T17:22:58;95881.03;;;6.64;100.00
23616;BME280;11985;49.404;7.734;2023-01-08T17:28:02;95875.22;;;6.62;100.00
23616;BME280;11985;49.404;7.734;2023-01-08T17:33:03;95854.88;;;6.64;100.00
23616;BME280;11985;49.404;7.734;2023-01-08T17:38:05;95838.44;;;6.57;100.00
23616;BME280;11985;49.404;7.734;2023-01-08T17:43:08;95830.75;;;6.37;100.00
23616;BME280;11985;49.404;7.734;2023-01-08T17:48:10;95835.56;;;6.15;100.00
23616;BME280;11985;49.404;7.734;2023-01-08T17:53:12;95822.75;;;6.07;100.00
23616;BME280;11985;49.404;7.734;2023-01-08T17:58:15;95820.50;;;6.11;100.00
23616;BME280;11985;49.404;7.734;2023-01-08T18:03:16;95829.75;;;6.13;100.00
23616;BME280;11985;49.404;7.734;2023-01-08T18:08:18;95826.38;;;6.06;100.00
23616;BME280;11985;49.404;7.734;2023-01-08T18:13:21;95820.38;;;5.99;100.00
23616;BME280;11985;49.404;7.734;2023-01-08T18:18:23;95805.97;;;5.90;100.00
23616;BME280;11985;49.404;7.734;2023-01-08T18:23:24;95804.09;;;5.65;100.00
23616;BME280;11985;49.404;7.734;2023-01-08T18:28:27;95806.97;;;5.57;100.00
23616;BME280;11985;49.404;7.734;2023-01-08T18:33:29;95808.66;;;5.45;100.00
23616;BME280;11985;49.404;7.734;2023-01-08T18:38:31;95800.69;;;5.26;100.00
23616;BME280;11985;49.404;7.734;2023-01-08T18:43:34;95788.50;;;5.14;100.00
23616;BME280;11985;49.404;7.734;2023-01-08T18:48:36;95777.69;;;5.03;100.00
23616;BME280;11985;49.404;7.734;2023-01-08T18:53:38;95759.88;;;4.94;100.00
23616;BME280;11985;49.404;7.734;2023-01-08T18:58:40;95756.03;;;5.03;100.00
23616;BME280;11985;49.404;7.734;2023-01-08T19:03:42;95757.81;;;5.09;100.00
23616;BME280;11985;49.404;7.734;2023-01-08T19:08:44;95747.63;;;5.33;100.00
23616;BME280;11985;49.404;7.734;2023-01-08T19:13:47;95755.91;;;5.61;100.00
23616;BME280;11985;49.404;7.734;2023-01-08T19:18:48;95751.00;;;5.71;100.00
23616;BME280;11985;49.404;7.734;2023-01-08T19:23:51;95735.31;;;5.78;100.00
23616;BME280;11985;49.404;7.734;2023-01-08T19:28:54;95729.84;;;5.79;100.00
23616;BME280;11985;49.404;7.734;2023-01-08T19:33:56;95718.34;;;5.87;100.00
23616;BME280;11985;49.404;7.734;2023-01-08T19:38:58;95715.13;;;5.92;100.00
23616;BME280;11985;49.404;7.734;2023-01-08T19:44:01;95695.38;;;5.96;100.00
23616;BME280;11985;49.404;7.734;2023-01-08T19:49:03;95697.78;;;5.97;100.00
23616;BME280;11985;49.404;7.734;2023-01-08T19:54:06;95700.94;;;6.06;100.00
23616;BME280;11985;49.404;7.734;2023-01-08T19:59:09;95691.06;;;6.26;100.00
23616;BME280;11985;49.404;7.734;2023-01-08T20:04:11;95682.44;;;6.44;100.00
23616;BME280;11985;49.404;7.734;2023-01-08T20:09:13;95681.78;;;6.49;100.00
23616;BME280;11985;49.404;7.734;2023-01-08T20:14:16;95672.56;;;6.46;100.00
23616;BME280;11985;49.404;7.734;2023-01-08T20:19:18;95653.53;;;6.39;100.00
23616;BME280;11985;49.404;7.734;2023-01-08T20:24:20;95652.22;;;6.30;100.00
23616;BME280;11985;49.404;7.734;2023-01-08T20:29:23;95646.13;;;6.18;100.00
23616;BME280;11985;49.404;7.734;2023-01-08T20:34:26;95639.06;;;6.18;100.00
23616;BME280;11985;49.404;7.734;2023-01-08T20:39:27;95617.72;;;6.21;100.00
23616;BME280;11985;49.404;7.734;2023-01-08T20:44:31;95613.78;;;6.30;100.00
23616;BME280;11985;49.404;7.734;2023-01-08T20:49:33;95601.66;;;6.36;100.00
23616;BME280;11985;49.404;7.734;2023-01-08T20:54:34;95595.25;;;6.32;100.00
23616;BME280;11985;49.404;7.734;2023-01-08T20:59:37;95588.09;;;6.27;100.00
23616;BME280;11985;49.404;7.734;2023-01-08T21:04:39;95585.78;;;6.19;100.00
23616;BME280;11985;49.404;7.734;2023-01-08T21:09:43;95580.25;;;6.09;100.00
23616;BME280;11985;49.404;7.734;2023-01-08T21:14:47;95569.38;;;6.12;100.00
23616;BME280;11985;49.404;7.734;2023-01-08T21:19:48;95570.16;;;6.13;100.00
23616;BME280;11985;49.404;7.734;2023-01-08T21:24:50;95554.13;;;6.09;100.00
23616;BME280;11985;49.404;7.734;2023-01-08T21:29:53;95544.59;;;6.15;100.00
23616;BME280;11985;49.404;7.734;2023-01-08T21:34:54;95540.44;;;6.25;100.00
23616;BME280;11985;49.404;7.734;2023-01-08T21:39:56;95533.31;;;6.32;100.00
23616;BME280;11985;49.404;7.734;2023-01-08T21:44:59;95512.38;;;6.51;100.00
23616;BME280;11985;49.404;7.734;2023-01-08T21:50:18;95481.34;;;6.66;100.00
23616;BME280;11985;49.404;7.734;2023-01-08T21:55:20;95487.28;;;6.73;100.00
23616;BME280;11985;49.404;7.734;2023-01-08T22:00:23;95480.00;;;6.75;100.00
23616;BME280;11985;49.404;7.734;2023-01-08T22:05:25;95475.56;;;6.76;100.00
23616;BME280;11985;49.404;7.734;2023-01-08T22:10:27;95470.44;;;6.69;100.00
23616;BME280;11985;49.404;7.734;2023-01-08T22:15:30;95466.66;;;6.65;100.00
23616;BME280;11985;49.404;7.734;2023-01-08T22:20:31;95452.34;;;6.68;100.00
23616;BME280;11985;49.404;7.734;2023-01-08T22:25:33;95456.78;;;6.67;100.00
23616;BME280;11985;49.404;7.734;2023-01-08T22:30:40;95452.34;;;6.68;100.00
23616;BME280;11985;49.404;7.734;2023-01-08T22:35:41;95455.19;;;6.66;100.00
23616;BME280;11985;49.404;7.734;2023-01-08T22:40:43;95465.06;;;6.64;100.00
23616;BME280;11985;49.404;7.734;2023-01-08T22:45:51;95461.31;;;6.60;100.00
23616;BME280;11985;49.404;7.734;2023-01-08T22:50:53;95458.94;;;6.58;100.00
23616;BME280;11985;49.404;7.734;2023-01-08T22:55:55;95447.09;;;6.56;100.00
23616;BME280;11985;49.404;7.734;2023-01-08T23:00:57;95446.97;;;6.51;100.00
23616;BME280;11985;49.404;7.734;2023-01-08T23:06:00;95439.34;;;6.49;100.00
23616;BME280;11985;49.404;7.734;2023-01-08T23:11:01;95430.13;;;6.47;100.00
23616;BME280;11985;49.404;7.734;2023-01-08T23:16:05;95432.75;;;6.47;100.00
23616;BME280;11985;49.404;7.734;2023-01-08T23:21:09;95427.63;;;6.40;100.00
23616;BME280;11985;49.404;7.734;2023-01-08T23:26:13;95422.16;;;6.42;100.00
23616;BME280;11985;49.404;7.734;2023-01-08T23:31:20;95401.25;;;6.42;100.00
23616;BME280;11985;49.404;7.734;2023-01-08T23:36:22;95412.16;;;6.39;100.00
23616;BME280;11985;49.404;7.734;2023-01-08T23:41:26;95398.50;;;6.37;100.00
23616;BME280;11985;49.404;7.734;2023-01-08T23:46:32;95402.16;;;6.35;100.00
23616;BME280;11985;49.404;7.734;2023-01-08T23:51:34;95410.22;;;6.34;100.00
23616;BME280;11985;49.404;7.734;2023-01-08T23:56:36;95407.81;;;6.32;100.00
